Time;durP1;ratioP1;P1;durP2;ratioP2;P2;SDS_P1;SDS_P2;PMS_P1;PMS_P2;Temp;Humidity;BMP_temperature;BMP_pressure;BME280_temperature;BME280_humidity;BME280_pressure;Samples;Min_cycle;Max_cycle;Signal;HPM_P1;HPM_P2
2024/04/02 00:00:52;;;;;;;14.98;11.38;;;7.10;99.90;;;;;;4978591;28;20060;-77
2024/04/02 00:03:19;;;;;;;15.30;12.48;;;7.10;99.90;;;;;;4978631;28;20047;-77
2024/04/02 00:05:45;;;;;;;15.13;9.50;;;7.10;99.90;;;;;;4961990;28;20093;-77
2024/04/02 00:08:12;;;;;;;17.05;10.95;;;7.10;99.90;;;;;;4962353;28;20057;-77
2024/04/02 00:10:38;;;;;;;15.15;11.07;;;7.10;99.90;;;;;;4978222;28;20510;-77
2024/04/02 00:13:05;;;;;;;13.20;10.40;;;7.10;99.90;;;;;;4978125;28;20462;-77
2024/04/02 00:15:32;;;;;;;11.27;10.07;;;7.00;99.90;;;;;;4978070;28;20046;-77
2024/04/02 00:18:02;;;;;;;12.43;9.25;;;7.20;99.90;;;;;;4961849;28;20058;-77
2024/04/02 00:20:28;;;;;;;12.25;8.18;;;6.90;99.90;;;;;;4946425;28;20136;-77
2024/04/02 00:22:54;;;;;;;10.77;7.65;;;6.90;99.90;;;;;;4961183;28;20063;-77
2024/04/02 00:25:21;;;;;;;11.10;9.40;;;6.90;99.90;;;;;;4961767;28;20554;-77
2024/04/02 00:27:47;;;;;;;7.40;5.68;;;6.90;99.90;;;;;;4977790;28;20046;-76
2024/04/02 00:30:24;;;;;;;8.38;6.63;;;7.00;99.90;;;;;;4961864;28;20038;-77
2024/04/02 00:32:51;;;;;;;9.85;7.38;;;7.00;99.90;;;;;;4977616;28;20035;-77
2024/04/02 00:35:20;;;;;;;7.60;6.30;;;7.00;99.90;;;;;;4962109;28;20120;-77
2024/04/02 00:37:47;;;;;;;5.13;4.72;;;7.00;99.90;;;;;;4993547;28;20058;-77
2024/04/02 00:40:14;;;;;;;7.32;6.47;;;7.00;99.90;;;;;;4961615;28;20535;-77
2024/04/02 00:42:41;;;;;;;6.10;5.22;;;7.20;99.90;;;;;;4977984;28;20109;-78
2024/04/02 00:45:07;;;;;;;8.60;7.20;;;7.10;99.90;;;;;;4961433;28;20038;-77
2024/04/02 00:47:34;;;;;;;7.82;5.45;;;7.20;99.90;;;;;;4961620;28;20129;-77
2024/04/02 00:50:01;;;;;;;6.45;4.90;;;7.20;99.90;;;;;;4961657;28;20404;-77
2024/04/02 00:52:28;;;;;;;10.18;7.90;;;7.30;99.90;;;;;;4961288;28;20054;-78
2024/04/02 00:54:58;;;;;;;8.70;5.60;;;7.30;99.90;;;;;;4961032;28;20045;-77
2024/04/02 00:57:24;;;;;;;8.73;6.22;;;7.30;99.90;;;;;;4961413;28;20057;-78
2024/04/02 00:59:51;;;;;;;8.60;5.28;;;7.30;99.90;;;;;;4961074;28;20389;-77
2024/04/02 01:02:19;;;;;;;7.38;6.70;;;7.30;99.90;;;;;;4968749;28;20496;-77
2024/04/02 01:04:47;;;;;;;9.10;6.75;;;7.40;99.90;;;;;;4977169;28;20454;-77
2024/04/02 01:07:18;;;;;;;5.38;4.60;;;7.30;99.90;;;;;;4948677;28;20436;-77
2024/04/02 01:09:44;;;;;;;8.32;6.25;;;7.20;99.90;;;;;;4980072;28;20458;-77
2024/04/02 01:12:11;;;;;;;7.15;5.30;;;7.20;99.90;;;;;;4996060;28;20038;-77
2024/04/02 01:14:38;;;;;;;8.63;7.65;;;7.20;99.90;;;;;;4996425;28;20416;-78
2024/04/02 01:17:05;;;;;;;8.38;7.40;;;7.20;99.90;;;;;;4980034;28;20100;-77
2024/04/02 01:19:31;;;;;;;7.43;6.03;;;7.40;99.90;;;;;;4980101;28;20404;-77
2024/04/02 01:21:58;;;;;;;9.45;7.68;;;7.20;99.90;;;;;;4979866;28;20660;-77
2024/04/02 01:24:25;;;;;;;6.18;5.57;;;7.20;99.90;;;;;;4980022;28;20042;-77
2024/04/02 01:26:51;;;;;;;5.45;4.85;;;7.20;99.90;;;;;;4979937;28;20136;-77
2024/04/02 01:29:17;;;;;;;9.70;6.35;;;7.20;99.90;;;;;;4996164;28;20060;-77
2024/04/02 01:31:43;;;;;;;5.38;4.80;;;7.20;99.90;;;;;;4979712;28;20072;-77
2024/04/02 01:34:12;;;;;;;9.02;5.20;;;7.20;99.90;;;;;;4994839;28;20099;-77
2024/04/02 01:36:39;;;;;;;10.02;8.52;;;7.20;99.90;;;;;;4979770;28;20096;-77
2024/04/02 01:39:07;;;;;;;10.15;8.85;;;7.20;99.90;;;;;;4979758;28;20046;-77
2024/04/02 01:41:34;;;;;;;6.95;6.18;;;7.20;99.90;;;;;;4979825;28;20100;-78
2024/04/02 01:44:02;;;;;;;8.45;6.18;;;7.20;99.90;;;;;;4979687;28;20451;-78
2024/04/02 01:46:29;;;;;;;8.38;6.32;;;7.10;99.90;;;;;;4979766;28;20042;-77
2024/04/02 01:48:56;;;;;;;4.88;4.40;;;7.10;99.90;;;;;;4995452;28;20049;-77
2024/04/02 01:51:22;;;;;;;9.95;6.78;;;7.10;99.90;;;;;;4979596;28;20037;-77
2024/04/02 01:53:48;;;;;;;7.18;6.07;;;7.20;99.90;;;;;;5012260;28;20053;-77
2024/04/02 01:56:15;;;;;;;6.38;5.78;;;7.20;99.90;;;;;;4979505;28;20073;-77
2024/04/02 01:58:41;;;;;;;6.13;5.07;;;7.10;99.90;;;;;;4995858;28;20096;-77
2024/04/02 02:01:07;;;;;;;9.00;6.32;;;7.20;99.90;;;;;;4979643;28;20046;-77
2024/04/02 02:03:34;;;;;;;10.43;6.45;;;7.10;99.90;;;;;;4979617;28;20125;-77
2024/04/02 02:06:00;;;;;;;4.95;4.30;;;7.10;99.90;;;;;;4995482;28;20096;-77
2024/04/02 02:08:27;;;;;;;8.27;5.85;;;7.10;99.90;;;;;;4979637;28;20053;-77
2024/04/02 02:10:56;;;;;;;5.95;3.63;;;7.10;99.90;;;;;;4995296;28;20042;-77
2024/04/02 02:13:23;;;;;;;3.30;3.00;;;7.10;99.90;;;;;;4979289;28;20129;-77
2024/04/02 02:16:02;;;;;;;10.82;4.55;;;7.10;99.90;;;;;;4979454;28;20054;-77
2024/04/02 02:18:29;;;;;;;5.75;4.05;;;7.10;99.90;;;;;;5011758;28;20506;-77
2024/04/02 02:20:56;;;;;;;4.70;3.67;;;7.20;99.90;;;;;;4978939;28;20176;-77
2024/04/02 02:23:23;;;;;;;4.22;3.70;;;7.20;99.90;;;;;;4979067;28;20088;-78
2024/04/02 02:25:50;;;;;;;5.75;3.97;;;7.20;99.90;;;;;;4995507;28;20045;-77
2024/04/02 02:28:16;;;;;;;5.75;4.70;;;7.30;99.90;;;;;;4994840;28;20046;-77
2024/04/02 02:30:43;;;;;;;6.47;4.30;;;7.30;99.90;;;;;;4978979;28;20045;-77
2024/04/02 02:33:09;;;;;;;5.97;4.97;;;7.40;99.90;;;;;;4978911;28;20054;-77
2024/04/02 02:35:35;;;;;;;5.82;2.90;;;7.40;99.90;;;;;;4979053;28;20050;-77
2024/04/02 02:38:02;;;;;;;3.90;3.22;;;7.40;99.90;;;;;;4978577;28;20046;-77
2024/04/02 02:40:32;;;;;;;6.68;3.53;;;7.30;99.90;;;;;;4978971;28;20115;-77
2024/04/02 02:42:58;;;;;;;5.55;4.70;;;7.30;99.90;;;;;;4978903;28;20077;-80
2024/04/02 02:45:25;;;;;;;6.35;4.85;;;7.30;99.90;;;;;;4997135;28;20053;-79
2024/04/02 02:47:52;;;;;;;7.60;6.82;;;7.30;99.90;;;;;;5017876;28;20045;-79
2024/04/02 02:50:19;;;;;;;5.97;4.38;;;7.30;99.90;;;;;;4985222;28;20076;-79
2024/04/02 02:52:45;;;;;;;6.90;6.28;;;7.20;99.90;;;;;;5001352;28;20091;-79
2024/04/02 02:55:11;;;;;;;4.60;3.90;;;7.20;99.90;;;;;;4985088;28;20053;-79
2024/04/02 02:57:38;;;;;;;6.25;4.10;;;7.20;99.90;;;;;;5001433;28;20054;-79
2024/04/02 03:00:06;;;;;;;5.07;3.53;;;7.10;99.90;;;;;;5001134;28;20048;-79
2024/04/02 03:02:35;;;;;;;6.75;4.18;;;7.10;99.90;;;;;;4983908;28;20140;-79
2024/04/02 03:05:03;;;;;;;4.55;3.03;;;7.10;99.90;;;;;;4975128;28;20068;-79
2024/04/02 03:07:29;;;;;;;7.45;5.50;;;7.00;99.90;;;;;;4985317;28;20049;-79
2024/04/02 03:09:56;;;;;;;9.80;7.07;;;6.90;99.90;;;;;;5001054;28;20477;-79
2024/04/02 03:12:22;;;;;;;5.93;4.38;;;6.90;99.90;;;;;;5016958;28;20073;-79
2024/04/02 03:14:48;;;;;;;4.30;3.88;;;6.60;99.90;;;;;;4984839;28;20069;-79
2024/04/02 03:17:15;;;;;;;6.07;4.68;;;6.90;99.90;;;;;;5017425;28;20106;-79
2024/04/02 03:19:41;;;;;;;7.30;5.65;;;6.80;99.90;;;;;;4985186;28;20088;-79
2024/04/02 03:22:07;;;;;;;6.30;4.88;;;6.80;99.90;;;;;;4984966;28;20046;-79
2024/04/02 03:24:34;;;;;;;7.53;6.47;;;6.80;99.90;;;;;;5017693;28;20044;-77
2024/04/02 03:27:02;;;;;;;7.35;6.25;;;6.80;99.90;;;;;;4984871;28;20064;-77
2024/04/02 03:29:28;;;;;;;4.80;3.83;;;6.70;99.90;;;;;;4953218;28;20497;-77
2024/04/02 03:31:54;;;;;;;10.20;6.95;;;6.70;99.90;;;;;;4984803;28;20109;-77
2024/04/02 03:34:21;;;;;;;8.15;6.05;;;6.70;99.90;;;;;;5001151;28;20198;-77
2024/04/02 03:36:47;;;;;;;4.53;3.55;;;6.70;99.90;;;;;;5017056;28;20153;-77
2024/04/02 03:39:13;;;;;;;5.00;4.55;;;6.70;99.90;;;;;;5001004;28;20033;-77
2024/04/02 03:41:39;;;;;;;5.20;4.20;;;6.60;99.90;;;;;;4952762;28;20046;-77
2024/04/02 03:44:06;;;;;;;6.35;5.70;;;6.60;99.90;;;;;;4969062;28;20049;-77
2024/04/02 03:46:33;;;;;;;7.05;4.50;;;6.60;99.90;;;;;;4984870;28;20042;-77
2024/04/02 03:48:59;;;;;;;8.35;5.05;;;6.70;99.90;;;;;;4968784;28;20049;-77
2024/04/02 03:51:25;;;;;;;7.50;5.93;;;6.90;99.90;;;;;;5000861;28;20081;-78
2024/04/02 03:53:53;;;;;;;3.85;3.45;;;6.80;99.90;;;;;;4968887;28;20096;-77
2024/04/02 03:56:19;;;;;;;9.73;5.88;;;6.60;99.90;;;;;;4951922;28;20125;-77
2024/04/02 03:58:45;;;;;;;5.32;4.82;;;6.60;99.90;;;;;;4981093;28;20439;-77
2024/04/02 04:01:12;;;;;;;5.72;5.18;;;6.60;99.90;;;;;;4981530;28;20045;-77
2024/04/02 04:03:38;;;;;;;8.23;7.47;;;6.60;99.90;;;;;;4981598;28;20057;-77
2024/04/02 04:06:05;;;;;;;4.50;4.10;;;6.70;99.90;;;;;;4981538;28;20050;-77
2024/04/02 04:08:33;;;;;;;5.90;4.85;;;6.70;99.90;;;;;;4981211;28;20491;-77
2024/04/02 04:11:00;;;;;;;5.68;4.97;;;6.70;99.90;;;;;;4981303;28;20508;-77
2024/04/02 04:13:26;;;;;;;4.65;4.22;;;6.70;99.90;;;;;;4997306;28;20130;-77
2024/04/02 04:16:00;;;;;;;6.80;5.32;;;6.70;99.90;;;;;;4981362;28;20070;-77
2024/04/02 04:18:27;;;;;;;7.47;4.78;;;6.70;99.90;;;;;;4981121;28;20046;-77
2024/04/02 04:20:56;;;;;;;11.07;5.22;;;6.70;99.90;;;;;;5013773;28;20587;-77
2024/04/02 04:23:24;;;;;;;7.93;5.82;;;6.70;99.90;;;;;;4981099;28;20046;-77
2024/04/02 04:26:01;;;;;;;5.57;4.13;;;6.70;99.90;;;;;;4981368;28;20145;-77
2024/04/02 04:28:28;;;;;;;6.18;5.00;;;6.70;99.90;;;;;;4997372;28;20054;-77
2024/04/02 04:30:56;;;;;;;8.55;7.35;;;6.60;99.90;;;;;;4997191;28;20495;-77
2024/04/02 04:33:23;;;;;;;6.97;6.28;;;6.60;99.90;;;;;;4980917;28;20077;-77
2024/04/02 04:35:50;;;;;;;4.32;3.92;;;6.60;99.90;;;;;;4981231;28;20046;-77
2024/04/02 04:38:16;;;;;;;7.20;5.63;;;6.60;99.90;;;;;;4980904;28;20054;-77
2024/04/02 04:40:43;;;;;;;5.38;4.85;;;6.60;99.90;;;;;;4965031;28;20038;-77
2024/04/02 04:43:12;;;;;;;5.72;5.18;;;6.60;99.90;;;;;;4980999;28;20137;-77
2024/04/02 04:45:38;;;;;;;6.97;4.05;;;6.50;99.90;;;;;;4996783;28;20491;-77
2024/04/02 04:48:08;;;;;;;5.78;4.82;;;6.60;99.90;;;;;;4996992;28;20065;-77
2024/04/02 04:50:35;;;;;;;6.47;5.13;;;6.50;99.90;;;;;;4964383;28;20077;-77
2024/04/02 04:53:01;;;;;;;7.78;5.55;;;6.40;99.90;;;;;;4996923;28;20103;-77
2024/04/02 04:55:31;;;;;;;9.23;6.82;;;6.40;99.90;;;;;;5012801;28;20153;-77
2024/04/02 04:57:58;;;;;;;7.47;4.45;;;6.40;99.90;;;;;;4964767;28;20034;-77
2024/04/02 05:00:24;;;;;;;6.53;5.90;;;6.40;99.90;;;;;;5011018;28;20053;-77
2024/04/02 05:02:51;;;;;;;9.65;4.72;;;6.40;99.90;;;;;;4990578;28;20069;-77
2024/04/02 05:05:17;;;;;;;10.10;4.60;;;6.30;99.90;;;;;;4996203;28;20057;-77
2024/04/02 05:08:17;;;;;;;5.88;4.95;;;6.30;99.90;;;;;;4957168;28;20073;-77
2024/04/02 05:10:44;;;;;;;7.63;6.93;;;6.30;99.90;;;;;;4980423;28;20133;-79
2024/04/02 05:13:11;;;;;;;6.90;6.30;;;6.30;99.90;;;;;;4980400;28;20038;-79
2024/04/02 05:15:37;;;;;;;4.28;3.88;;;6.40;99.90;;;;;;4980038;28;20042;-79
2024/04/02 05:18:04;;;;;;;8.75;6.15;;;6.30;99.90;;;;;;5013161;28;20114;-79
2024/04/02 05:20:30;;;;;;;5.28;4.82;;;6.30;99.90;;;;;;4980297;28;20077;-79
2024/04/02 05:22:56;;;;;;;6.55;6.00;;;6.40;99.90;;;;;;4996455;28;20057;-79
2024/04/02 05:25:23;;;;;;;6.93;5.30;;;6.40;99.90;;;;;;4996081;28;20042;-79
2024/04/02 05:27:49;;;;;;;6.97;5.47;;;6.40;99.90;;;;;;4980219;28;20050;-79
2024/04/02 05:30:15;;;;;;;7.65;5.50;;;6.40;99.90;;;;;;4980141;28;20050;-80
2024/04/02 05:32:42;;;;;;;4.88;3.05;;;6.40;99.90;;;;;;4963794;28;20491;-79
2024/04/02 05:35:08;;;;;;;6.13;4.93;;;6.50;99.90;;;;;;4979939;28;20045;-79
2024/04/02 05:37:37;;;;;;;7.78;7.07;;;6.50;99.90;;;;;;4979629;28;20602;-79
2024/04/02 05:40:04;;;;;;;8.75;7.88;;;6.50;99.90;;;;;;5012420;28;20046;-80
2024/04/02 05:42:31;;;;;;;9.52;8.73;;;6.50;99.90;;;;;;4979711;28;20045;-79
2024/04/02 05:44:58;;;;;;;8.27;7.57;;;6.60;99.90;;;;;;4963869;28;20050;-79
2024/04/02 05:47:24;;;;;;;7.05;6.13;;;6.60;99.90;;;;;;4979705;28;20049;-79
2024/04/02 05:49:51;;;;;;;5.65;5.15;;;6.60;99.90;;;;;;4995907;28;20052;-79
2024/04/02 05:52:18;;;;;;;10.52;6.32;;;6.90;99.90;;;;;;4968519;28;20050;-79
2024/04/02 05:54:45;;;;;;;6.20;5.40;;;6.80;99.90;;;;;;4975972;28;20082;-78
2024/04/02 05:57:15;;;;;;;6.65;6.00;;;6.90;99.90;;;;;;4991711;28;20042;-77
2024/04/02 05:59:41;;;;;;;7.25;6.57;;;6.90;99.90;;;;;;4992387;28;20038;-77
2024/04/02 06:02:08;;;;;;;5.70;4.80;;;7.00;99.90;;;;;;4992359;28;20403;-75
2024/04/02 06:04:34;;;;;;;6.38;5.88;;;7.00;99.90;;;;;;4976236;28;20058;-75
2024/04/02 06:07:00;;;;;;;6.40;5.80;;;7.10;99.90;;;;;;4962505;28;20065;-76
2024/04/02 06:09:26;;;;;;;10.23;9.32;;;7.20;99.90;;;;;;5008301;28;20147;-76
2024/04/02 06:11:52;;;;;;;7.53;6.78;;;7.20;99.90;;;;;;4975049;28;20117;-75
2024/04/02 06:14:18;;;;;;;5.32;4.55;;;7.30;99.90;;;;;;4960014;28;20047;-76
2024/04/02 06:16:44;;;;;;;6.60;6.00;;;7.50;99.90;;;;;;4991983;28;20459;-75
2024/04/02 06:19:10;;;;;;;7.40;6.13;;;7.60;99.90;;;;;;4992180;28;20034;-75
2024/04/02 06:21:36;;;;;;;6.53;5.93;;;7.90;99.90;;;;;;4975355;28;20439;-75
2024/04/02 06:24:02;;;;;;;5.78;5.10;;;8.10;99.90;;;;;;4975863;28;20448;-75
2024/04/02 06:26:28;;;;;;;4.95;4.50;;;8.30;99.90;;;;;;4975880;28;20097;-76
2024/04/02 06:28:54;;;;;;;7.18;6.47;;;8.50;99.90;;;;;;4976014;28;20046;-75
2024/04/02 06:31:20;;;;;;;7.50;6.43;;;8.70;99.90;;;;;;4992000;28;20049;-76
2024/04/02 06:33:46;;;;;;;7.38;6.72;;;9.00;99.90;;;;;;4991914;28;20045;-76
2024/04/02 06:36:12;;;;;;;5.55;4.80;;;9.20;99.90;;;;;;4976385;28;20034;-76
2024/04/02 06:38:38;;;;;;;5.95;5.32;;;9.40;99.90;;;;;;4959725;28;20096;-76
2024/04/02 06:41:04;;;;;;;4.50;4.10;;;9.60;99.90;;;;;;4991978;28;20053;-76
2024/04/02 06:43:31;;;;;;;7.30;6.63;;;9.80;99.90;;;;;;5007965;28;20446;-76
2024/04/02 06:45:59;;;;;;;5.57;4.97;;;9.90;99.90;;;;;;4991892;28;20058;-76
2024/04/02 06:48:26;;;;;;;6.55;5.15;;;10.00;99.90;;;;;;4975852;28;20046;-76
2024/04/02 06:51:03;;;;;;;5.05;4.47;;;10.20;99.90;;;;;;4975735;28;20046;-76
2024/04/02 06:53:31;;;;;;;4.95;4.32;;;10.40;99.90;;;;;;4992074;28;20144;-76
2024/04/02 06:55:57;;;;;;;7.20;4.55;;;10.60;99.90;;;;;;5008108;28;20042;-76
2024/04/02 06:58:24;;;;;;;5.50;4.38;;;10.90;99.90;;;;;;4975518;28;20054;-76
2024/04/02 07:00:50;;;;;;;5.60;3.60;;;11.10;99.90;;;;;;4991627;28;20050;-76
2024/04/02 07:03:18;;;;;;;6.25;4.82;;;11.50;99.90;;;;;;4959604;28;20050;-75
2024/04/02 07:05:44;;;;;;;4.68;3.65;;;11.80;99.90;;;;;;4975634;28;20042;-75
2024/04/02 07:08:10;;;;;;;3.67;2.95;;;12.10;99.90;;;;;;4991903;28;20046;-76
2024/04/02 07:10:39;;;;;;;3.55;2.97;;;12.30;99.90;;;;;;4975369;28;20088;-76
2024/04/02 07:13:05;;;;;;;4.03;3.05;;;12.50;99.90;;;;;;4975592;28;20066;-76
2024/04/02 07:15:31;;;;;;;3.72;3.42;;;12.90;99.90;;;;;;4992089;28;20440;-76
2024/04/02 07:17:57;;;;;;;4.75;3.83;;;13.20;99.90;;;;;;4959320;28;20129;-76
2024/04/02 07:20:23;;;;;;;4.07;2.58;;;13.40;99.90;;;;;;4975573;28;20051;-76
2024/04/02 07:22:50;;;;;;;3.40;3.10;;;13.60;99.90;;;;;;4975190;28;20484;-76
2024/04/02 07:25:16;;;;;;;3.33;2.85;;;13.60;99.90;;;;;;5007863;28;20050;-77
2024/04/02 07:27:42;;;;;;;8.75;3.97;;;13.90;99.90;;;;;;4975196;28;20043;-76
2024/04/02 07:30:08;;;;;;;3.83;3.53;;;14.10;99.00;;;;;;4975416;28;20053;-76
2024/04/02 07:32:34;;;;;;;4.65;3.90;;;14.10;98.20;;;;;;4976730;28;20034;-77
2024/04/02 07:35:01;;;;;;;4.15;3.75;;;14.10;97.50;;;;;;4995115;28;20404;-76
2024/04/02 07:37:27;;;;;;;4.45;3.58;;;14.00;98.20;;;;;;4995152;28;20435;-76
2024/04/02 07:39:53;;;;;;;4.47;3.25;;;13.80;97.90;;;;;;5011146;28;20412;-77
2024/04/02 07:42:19;;;;;;;4.25;3.65;;;13.50;98.80;;;;;;4978844;28;20058;-76
2024/04/02 07:44:46;;;;;;;4.05;3.67;;;13.40;99.00;;;;;;4962519;28;20054;-76
2024/04/02 07:47:12;;;;;;;4.00;3.60;;;13.30;99.00;;;;;;5011372;28;20070;-77
2024/04/02 07:49:38;;;;;;;4.53;4.13;;;13.20;99.50;;;;;;4978765;28;20065;-77
2024/04/02 07:52:04;;;;;;;3.28;3.00;;;13.00;99.30;;;;;;4994789;28;20093;-77
2024/04/02 07:54:30;;;;;;;3.75;3.00;;;12.70;99.80;;;;;;4978688;28;20056;-77
2024/04/02 07:56:56;;;;;;;7.15;3.40;;;12.60;99.90;;;;;;4978305;28;20410;-76
2024/04/02 07:59:23;;;;;;;4.20;3.80;;;12.40;99.90;;;;;;4978683;28;20439;-76
2024/04/02 08:01:50;;;;;;;4.57;3.25;;;12.10;99.90;;;;;;5010701;28;20046;-77
2024/04/02 08:04:17;;;;;;;4.95;4.15;;;12.30;99.90;;;;;;4962443;28;20062;-77
2024/04/02 08:06:46;;;;;;;8.55;3.78;;;12.70;99.90;;;;;;4994403;28;20100;-77
2024/04/02 08:09:12;;;;;;;4.47;3.42;;;13.00;99.90;;;;;;4994469;28;20058;-76
2024/04/02 08:11:41;;;;;;;5.25;3.22;;;13.00;99.90;;;;;;4978166;28;20057;-77
2024/04/02 08:14:07;;;;;;;6.97;4.65;;;13.10;99.90;;;;;;4994422;28;20042;-77
2024/04/02 08:16:33;;;;;;;8.20;4.15;;;13.40;99.60;;;;;;4994287;28;20514;-77
2024/04/02 08:18:59;;;;;;;5.55;3.55;;;13.60;99.40;;;;;;4977984;28;20078;-77
2024/04/02 08:21:25;;;;;;;5.10;4.35;;;13.80;99.30;;;;;;4994300;28;20042;-77
2024/04/02 08:23:51;;;;;;;5.00;3.88;;;14.10;98.50;;;;;;4977990;28;20069;-76
2024/04/02 08:26:19;;;;;;;4.90;3.20;;;13.80;98.40;;;;;;4994307;28;20093;-76
2024/04/02 08:28:46;;;;;;;4.82;3.83;;;13.50;98.80;;;;;;4993926;28;20570;-77
2024/04/02 08:31:12;;;;;;;5.32;4.18;;;13.30;99.30;;;;;;4994028;28;20039;-76
2024/04/02 08:33:38;;;;;;;7.53;4.97;;;13.10;99.50;;;;;;4977992;28;20053;-76
2024/04/02 08:36:04;;;;;;;3.25;2.75;;;12.80;99.90;;;;;;4977971;28;20053;-76
2024/04/02 08:38:30;;;;;;;3.72;3.10;;;12.60;99.90;;;;;;4961634;28;20058;-76
2024/04/02 08:41:05;;;;;;;6.43;4.88;;;12.60;99.90;;;;;;4961732;28;20046;-76
2024/04/02 08:43:31;;;;;;;6.10;4.22;;;12.50;99.90;;;;;;4993505;28;20034;-76
2024/04/02 08:45:59;;;;;;;7.30;4.95;;;12.30;99.90;;;;;;4977698;28;20395;-76
2024/04/02 08:48:28;;;;;;;4.10;3.67;;;12.30;99.90;;;;;;4993738;28;20050;-76
2024/04/02 08:50:55;;;;;;;6.78;4.85;;;12.40;99.90;;;;;;4977284;28;20377;-77
2024/04/02 08:53:25;;;;;;;8.43;4.95;;;12.60;99.90;;;;;;4993623;28;20052;-76
2024/04/02 08:55:53;;;;;;;6.88;5.28;;;13.10;99.90;;;;;;4961926;28;20053;-76
2024/04/02 08:58:20;;;;;;;7.90;4.10;;;13.50;99.40;;;;;;4961417;28;20050;-78
2024/04/02 09:00:46;;;;;;;4.20;3.50;;;13.60;99.40;;;;;;4976895;28;20523;-77
2024/04/02 09:03:16;;;;;;;4.03;3.63;;;13.70;99.20;;;;;;4961241;28;20377;-78
2024/04/02 09:05:42;;;;;;;9.90;3.38;;;13.60;98.90;;;;;;4993532;28;20049;-78
2024/04/02 09:08:09;;;;;;;4.10;3.55;;;13.70;98.80;;;;;;4977173;28;20039;-77
2024/04/02 09:10:36;;;;;;;3.60;3.08;;;13.60;99.00;;;;;;4977420;28;20039;-78
2024/04/02 09:13:01;;;;;;;6.20;4.00;;;13.40;99.20;;;;;;4960953;28;20046;-77
2024/04/02 09:15:27;;;;;;;5.70;4.18;;;13.30;99.40;;;;;;4961099;28;20407;-77
2024/04/02 09:17:54;;;;;;;6.93;4.63;;;13.10;99.90;;;;;;4993054;28;20043;-77
2024/04/02 09:20:21;;;;;;;6.15;3.95;;;12.70;99.90;;;;;;4993096;28;20515;-78
2024/04/02 09:22:48;;;;;;;5.97;3.78;;;12.30;99.90;;;;;;4993097;28;20073;-78
2024/04/02 09:25:15;;;;;;;10.18;5.85;;;12.00;99.90;;;;;;4993027;28;20034;-78
2024/04/02 09:27:41;;;;;;;5.47;4.32;;;11.90;99.90;;;;;;4992983;28;20093;-78
2024/04/02 09:30:08;;;;;;;7.07;4.03;;;11.80;99.90;;;;;;4976979;28;20636;-78
2024/04/02 09:32:37;;;;;;;6.68;4.40;;;11.90;99.90;;;;;;4992873;28;20093;-78
2024/04/02 09:35:13;;;;;;;5.22;3.05;;;12.10;99.90;;;;;;4992837;28;20038;-78
2024/04/02 09:37:47;;;;;;;6.63;4.78;;;12.30;99.90;;;;;;4968382;28;20407;-78
2024/04/02 09:40:16;;;;;;;5.25;4.45;;;12.40;99.90;;;;;;4996688;28;20480;-78
2024/04/02 09:42:47;;;;;;;5.00;4.50;;;12.50;99.90;;;;;;4996783;28;20046;-78
2024/04/02 09:45:14;;;;;;;7.85;3.80;;;12.60;99.90;;;;;;5012855;28;20042;-78
2024/04/02 09:47:43;;;;;;;7.60;2.70;;;12.70;99.90;;;;;;4980264;28;20050;-78
2024/04/02 09:50:10;;;;;;;5.93;3.90;;;12.90;99.90;;;;;;4995923;28;20054;-78
2024/04/02 09:52:36;;;;;;;7.00;4.00;;;13.10;99.90;;;;;;5012106;28;20545;-78
2024/04/02 09:55:04;;;;;;;7.20;4.50;;;13.10;99.90;;;;;;4994717;28;20046;-78
2024/04/02 09:57:31;;;;;;;5.80;4.22;;;13.10;99.90;;;;;;4995775;28;20037;-78
2024/04/02 09:59:58;;;;;;;5.65;4.07;;;13.20;99.90;;;;;;5011870;28;20487;-78
2024/04/02 10:02:27;;;;;;;7.47;5.43;;;13.00;99.90;;;;;;4995974;28;20037;-78
2024/04/02 10:04:55;;;;;;;6.75;5.55;;;12.80;99.90;;;;;;4995746;28;20054;-78
2024/04/02 10:07:23;;;;;;;7.95;4.90;;;12.70;99.90;;;;;;4995437;28;20401;-78
2024/04/02 10:10:00;;;;;;;9.23;4.93;;;12.60;99.90;;;;;;4979241;28;20056;-78
2024/04/02 10:12:33;;;;;;;7.22;5.93;;;12.50;99.90;;;;;;4995417;28;20116;-78
2024/04/02 10:15:10;;;;;;;6.93;5.43;;;12.50;99.90;;;;;;5011725;28;20034;-78
2024/04/02 10:17:39;;;;;;;8.48;4.18;;;12.60;99.90;;;;;;5011874;28;20038;-78
2024/04/02 10:20:26;;;;;;;6.30;4.65;;;12.80;99.90;;;;;;4978990;28;20054;-78
2024/04/02 10:22:53;;;;;;;9.02;5.28;;;13.00;99.90;;;;;;5011770;28;20042;-78
2024/04/02 10:25:19;;;;;;;6.80;4.93;;;13.10;99.90;;;;;;5011556;28;20522;-78
2024/04/02 10:27:49;;;;;;;6.13;5.38;;;13.20;99.90;;;;;;4995383;28;20054;-78
2024/04/02 10:30:17;;;;;;;7.53;6.22;;;13.20;99.90;;;;;;4979346;28;20054;-78
2024/04/02 10:32:43;;;;;;;9.68;4.47;;;13.30;99.90;;;;;;4995314;28;20038;-78
2024/04/02 10:35:20;;;;;;;6.97;6.07;;;13.30;99.90;;;;;;4978890;28;20450;-77
2024/04/02 10:37:48;;;;;;;7.97;5.28;;;13.40;98.70;;;;;;4995040;28;20046;-77
2024/04/02 10:40:15;;;;;;;6.05;5.03;;;13.40;98.40;;;;;;4994944;28;20049;-77
2024/04/02 10:42:49;;;;;;;6.03;5.05;;;13.30;98.40;;;;;;4979461;28;20058;-77
2024/04/02 10:45:16;;;;;;;7.93;4.15;;;13.30;98.80;;;;;;5011504;28;20045;-77
2024/04/02 10:47:50;;;;;;;8.50;4.70;;;13.30;99.00;;;;;;4994971;28;20057;-78
2024/04/02 10:50:18;;;;;;;6.32;4.43;;;13.50;97.90;;;;;;4995251;28;20101;-77
2024/04/02 10:52:44;;;;;;;3.92;3.60;;;13.60;97.70;;;;;;4994852;28;20046;-77
2024/04/02 10:55:11;;;;;;;7.30;3.80;;;13.60;97.60;;;;;;4994914;28;20400;-77
2024/04/02 10:57:38;;;;;;;5.28;3.53;;;13.50;98.10;;;;;;4994991;28;20483;-77
2024/04/02 11:00:06;;;;;;;4.70;4.20;;;13.50;98.20;;;;;;4994870;28;20053;-77
2024/04/02 11:02:32;;;;;;;5.15;3.28;;;13.50;98.50;;;;;;5011623;28;20041;-77
2024/04/02 11:04:59;;;;;;;6.63;4.70;;;13.50;98.50;;;;;;5011280;28;20057;-77
2024/04/02 11:07:29;;;;;;;6.65;4.82;;;13.60;98.40;;;;;;4981264;28;20050;-77
2024/04/02 11:09:56;;;;;;;8.18;4.00;;;13.50;98.10;;;;;;4982939;28;20050;-77
2024/04/02 11:12:24;;;;;;;6.35;4.80;;;13.40;98.10;;;;;;5014998;28;20045;-78
2024/04/02 11:14:55;;;;;;;6.00;4.22;;;13.30;98.40;;;;;;4998783;28;20045;-77
2024/04/02 11:17:21;;;;;;;;;;;13.40;98.50;;;;;;4998873;28;20088;-77
2024/04/02 11:19:48;;;;;;;8.95;4.43;;;13.40;98.00;;;;;;5015092;28;19929;-77
2024/04/02 11:25:14;;;;;;;5.95;5.35;;;13.50;98.10;;;;;;5014993;28;20041;-77
2024/04/02 11:27:42;;;;;;;7.25;4.57;;;13.80;97.60;;;;;;5014910;28;20042;-77
2024/04/02 11:30:09;;;;;;;7.78;5.03;;;14.10;97.40;;;;;;5014871;28;20050;-77
2024/04/02 11:32:36;;;;;;;6.18;4.85;;;14.30;96.10;;;;;;5014794;28;20046;-78
2024/04/02 11:35:10;;;;;;;4.13;3.72;;;14.70;96.00;;;;;;4998664;28;20034;-78
2024/04/02 11:37:36;;;;;;;6.75;3.85;;;15.40;95.70;;;;;;4998998;28;20050;-77
2024/04/02 11:40:03;;;;;;;5.45;3.58;;;15.80;94.00;;;;;;4998535;28;20037;-78
2024/04/02 11:42:31;;;;;;;6.47;4.07;;;15.70;93.00;;;;;;4982138;28;20045;-77
2024/04/02 11:45:03;;;;;;;6.18;3.90;;;15.50;92.90;;;;;;4998266;28;20388;-79
2024/04/02 11:47:30;;;;;;;3.33;3.03;;;15.20;93.00;;;;;;4998074;28;20038;-78
2024/04/02 11:49:56;;;;;;;4.13;2.90;;;15.10;93.50;;;;;;4998355;28;20041;-77
2024/04/02 11:52:22;;;;;;;3.75;2.25;;;15.10;93.30;;;;;;4994574;28;20104;-77
2024/04/02 11:54:48;;;;;;;5.03;2.65;;;15.20;93.40;;;;;;4995631;28;20034;-77
2024/04/02 12:02:48;;;;;;;5.45;3.13;;;15.40;93.00;;;;;;5014404;28;20076;-77
2024/04/02 12:05:15;;;;;;;3.80;3.30;;;15.50;92.50;;;;;;4981603;28;20492;-77
2024/04/02 12:07:42;;;;;;;5.22;3.42;;;15.40;92.60;;;;;;5014140;28;20084;-77
2024/04/02 12:10:10;;;;;;;5.18;3.00;;;15.00;92.50;;;;;;5014305;28;20387;-77
2024/04/02 12:12:37;;;;;;;3.35;3.00;;;14.60;93.30;;;;;;5014022;28;20038;-77
2024/04/02 12:15:05;;;;;;;4.57;3.42;;;14.50;93.90;;;;;;5014045;28;20624;-77
2024/04/02 12:17:32;;;;;;;6.22;3.47;;;14.40;94.30;;;;;;5013405;28;20041;-77
2024/04/02 12:19:59;;;;;;;3.72;3.35;;;14.40;94.00;;;;;;5013844;28;20030;-77
2024/04/02 12:22:26;;;;;;;3.60;3.10;;;14.50;93.50;;;;;;5013917;28;20038;-77
2024/04/02 12:24:54;;;;;;;4.68;3.53;;;14.40;93.60;;;;;;5014191;28;20526;-77
2024/04/02 12:27:20;;;;;;;4.13;3.28;;;14.20;93.10;;;;;;5013708;28;20430;-78
2024/04/02 12:29:55;;;;;;;4.35;2.22;;;14.10;93.40;;;;;;5014172;28;20034;-77
2024/04/02 12:32:25;;;;;;;5.55;2.88;;;14.20;93.60;;;;;;5013648;28;20041;-77
2024/04/02 12:34:51;;;;;;;5.10;2.20;;;14.30;93.40;;;;;;5013591;28;20484;-77
2024/04/02 12:37:18;;;;;;;4.30;2.30;;;14.40;93.30;;;;;;5013344;28;20050;-77
2024/04/02 12:39:46;;;;;;;3.70;2.03;;;14.50;92.50;;;;;;4997393;28;20042;-77
2024/04/02 12:42:13;;;;;;;5.28;2.75;;;14.60;92.40;;;;;;5013850;28;20042;-78
2024/04/02 12:44:40;;;;;;;2.95;2.63;;;14.50;92.00;;;;;;4997268;28;20057;-77
2024/04/02 12:47:09;;;;;;;3.25;2.22;;;14.40;92.50;;;;;;5013676;28;20542;-77
2024/04/02 12:49:35;;;;;;;2.40;1.67;;;14.30;92.40;;;;;;5013316;28;20042;-78
2024/04/02 12:52:02;;;;;;;3.47;2.22;;;14.40;92.60;;;;;;4996905;28;20042;-77
2024/04/02 12:54:28;;;;;;;3.30;1.58;;;14.40;92.30;;;;;;4996713;28;20403;-78
2024/04/02 12:56:54;;;;;;;6.45;2.03;;;14.60;92.30;;;;;;5013213;28;20070;-78
2024/04/02 12:59:20;;;;;;;3.35;2.17;;;15.00;92.10;;;;;;5013314;28;20514;-77